Terminal Aerodrome Forecast
Issued by NWS

Home | Current Version | Previous Version | Text Only | Print | Product List | Glossary On
Versions: 1 2 3 4 5 6 7 8 9 10 11 12 13 14 15 16 17 18 19
446
FTUS43 KAPX 230522
TAFPLN
TAF
KPLN 230522Z 2306/2406 VRB03KT P6SM VCSH OVC035
     FM230800 VRB03KT P6SM VCSH OVC022
     FM231000 26004KT P6SM VCSH OVC018
     FM231300 27006KT P6SM BKN020
     FM231500 25008KT P6SM SCT090
     FM232100 25012G20KT P6SM SCT150
     FM240000 31008KT P6SM SCT110=

USA.gov is the U.S. government's official web portal to all federal, state and local government web resources and services.